Time;durP1;ratioP1;P1;durP2;ratioP2;P2;SDS_P1;SDS_P2;PMS_P1;PMS_P2;Temp;Humidity;BMP_temperature;BMP_pressure;BME280_temperature;BME280_humidity;BME280_pressure;Samples;Min_cycle;Max_cycle;Signal;HPM_P1;HPM_P2
2021/12/04 00:00:56;;;;;;;16.35;6.40;;;;;;;-0.38;79.69;97844.94;4535770;31;20092;-76
2021/12/04 00:03:24;;;;;;;16.50;6.20;;;;;;;-0.21;78.42;97837.25;4521177;31;20103;-76
2021/12/04 00:05:54;;;;;;;;;;;;;;;0.00;76.77;97834.69;4535611;31;20087;-76
2021/12/04 00:08:25;;;;;;;23.12;9.45;;;;;;;0.56;73.21;97828.44;4535607;31;20031;-77
2021/12/04 00:10:53;;;;;;;28.87;10.75;;;;;;;-0.33;75.28;97828.84;4535215;31;20144;-77
2021/12/04 00:13:20;;;;;;;24.17;10.00;;;;;;;0.06;73.19;97827.03;4534586;31;20575;-76
2021/12/04 00:15:47;;;;;;;39.90;17.02;;;;;;;-0.04;72.88;97822.84;4534987;31;20094;-76
2021/12/04 00:18:14;;;;;;;44.85;16.65;;;;;;;-0.82;76.74;97825.59;4535388;31;20075;-76
2021/12/04 00:20:41;;;;;;;54.40;21.92;;;;;;;-1.02;77.03;97815.47;4535206;31;20097;-76
2021/12/04 00:23:09;;;;;;;48.58;19.45;;;;;;;-0.67;75.27;97812.03;4535438;31;20394;-76
2021/12/04 00:25:38;;;;;;;43.20;17.95;;;;;;;-0.72;75.52;97813.75;4535411;31;20169;-77
2021/12/04 00:28:06;;;;;;;37.03;16.55;;;;;;;-0.75;75.35;97818.81;4535025;31;20075;-76
2021/12/04 00:30:33;;;;;;;22.87;9.88;;;;;;;-0.66;75.43;97816.25;4520954;31;20143;-76
2021/12/04 00:33:04;;;;;;;20.10;7.80;;;;;;;-0.76;75.80;97809.53;4535188;31;20158;-77
2021/12/04 00:43:25;;;;;;;10.80;4.18;;;;;;;-1.30;79.43;97808.72;4535354;31;20471;-76
2021/12/04 00:51:24;;;;;;;11.88;4.45;;;;;;;-1.85;83.09;97812.03;4535259;31;20132;-76
2021/12/04 00:53:54;;;;;;;13.30;4.53;;;;;;;-1.40;81.10;97814.63;4535194;31;20598;-76
2021/12/04 00:56:22;;;;;;;11.30;4.22;;;;;;;-0.89;78.95;97807.00;4534927;31;20101;-76
2021/12/04 00:58:49;;;;;;;11.52;4.57;;;;;;;-1.05;79.62;97804.53;4535032;31;20075;-76
2021/12/04 01:01:17;;;;;;;12.93;4.65;;;;;;;-1.24;80.07;97809.59;4534849;31;20111;-76
2021/12/04 01:03:45;;;;;;;11.63;4.30;;;;;;;-0.93;79.19;97812.09;4535181;31;20122;-76
2021/12/04 01:06:12;;;;;;;10.82;4.47;;;;;;;-0.67;78.17;97800.22;4535141;31;20153;-76
2021/12/04 01:08:39;;;;;;;13.00;4.50;;;;;;;-0.54;78.03;97801.03;4534632;31;20142;-76
2021/12/04 01:11:06;;;;;;;12.57;4.00;;;;;;;-1.00;78.72;97796.06;4534757;31;20433;-76
2021/12/04 01:13:34;;;;;;;11.73;4.25;;;;;;;-0.94;78.44;97798.59;4535021;31;20510;-75
2021/12/04 01:16:01;;;;;;;10.05;3.75;;;;;;;-0.99;78.80;97795.22;4534666;31;20103;-76
2021/12/04 01:18:28;;;;;;;13.45;4.30;;;;;;;-1.40;80.85;97792.69;4535013;31;20125;-76
2021/12/04 01:20:55;;;;;;;14.05;4.30;;;;;;;-1.80;83.03;97794.34;4535034;31;20148;-76
2021/12/04 01:23:22;;;;;;;12.40;4.70;;;;;;;-1.81;83.20;97790.09;4534600;31;20134;-77
2021/12/04 01:25:49;;;;;;;11.70;4.55;;;;;;;-1.73;82.94;97780.84;4534601;31;20089;-76
2021/12/04 01:28:16;;;;;;;13.20;5.00;;;;;;;-1.71;83.98;97771.56;4534871;31;20131;-76
2021/12/04 01:30:43;;;;;;;15.05;5.82;;;;;;;-1.49;83.59;97763.19;4534628;31;20167;-76
2021/12/04 01:33:10;;;;;;;14.75;5.00;;;;;;;-1.80;85.20;97774.13;4534704;31;20109;-76
2021/12/04 01:35:37;;;;;;;15.05;5.32;;;;;;;-1.36;83.70;97765.72;4534967;31;20568;-76
2021/12/04 01:38:04;;;;;;;13.07;5.50;;;;;;;-1.05;82.26;97769.91;4534436;31;20072;-76
2021/12/04 01:40:31;;;;;;;11.27;4.72;;;;;;;-0.61;79.02;97766.44;4534884;31;20091;-76
2021/12/04 01:42:58;;;;;;;11.05;4.07;;;;;;;-0.75;78.46;97773.22;4534783;31;20170;-75
2021/12/04 01:45:26;;;;;;;12.57;5.30;;;;;;;-0.90;78.78;97774.94;4534475;31;20079;-76
2021/12/04 01:47:59;;;;;;;14.43;5.50;;;;;;;-1.35;80.48;97778.38;4520400;31;20398;-77
2021/12/04 01:50:27;;;;;;;14.95;5.43;;;;;;;-1.90;84.14;97777.47;4534428;31;20106;-76
2021/12/04 01:52:56;;;;;;;14.15;5.62;;;;;;;-1.66;84.02;97776.66;4534405;31;20098;-76
2021/12/04 01:55:28;;;;;;;13.18;4.80;;;;;;;-0.82;79.56;97774.94;4534640;31;20086;-76
2021/12/04 01:57:55;;;;;;;13.38;5.07;;;;;;;-0.56;77.42;97781.63;4534212;31;20076;-77
2021/12/04 02:00:22;;;;;;;12.80;5.18;;;;;;;-0.80;78.17;97768.16;4534573;31;20429;-77
2021/12/04 02:02:49;;;;;;;14.10;5.25;;;;;;;-0.70;77.32;97762.22;4534384;31;20105;-76
2021/12/04 02:05:16;;;;;;;14.20;5.20;;;;;;;-0.53;77.26;97752.06;4534123;31;20564;-77
2021/12/04 02:07:43;;;;;;;16.77;5.15;;;;;;;-0.31;76.29;97757.88;4534380;31;20130;-75
2021/12/04 02:10:10;;;;;;;12.65;4.95;;;;;;;-0.42;76.06;97765.53;4520003;31;20155;-77
2021/12/04 02:12:37;;;;;;;11.80;4.15;;;;;;;-0.39;75.49;97757.06;4533652;31;20151;-76
2021/12/04 02:15:06;;;;;;;13.57;5.20;;;;;;;-0.65;76.32;97754.59;4534340;31;20083;-77
2021/12/04 02:17:33;;;;;;;12.32;4.90;;;;;;;-1.07;77.78;97747.94;4534254;31;20101;-77
2021/12/04 02:20:00;;;;;;;13.50;5.22;;;;;;;-0.93;77.42;97751.31;4533887;31;20135;-77
2021/12/04 02:22:27;;;;;;;13.62;5.18;;;;;;;-0.78;77.33;97755.50;4534309;31;20170;-76
2021/12/04 02:24:54;;;;;;;14.10;5.55;;;;;;;-1.09;78.59;97744.56;4534273;31;20150;-76
2021/12/04 02:27:21;;;;;;;13.30;5.50;;;;;;;-0.76;77.61;97754.63;4533854;31;20105;-76
2021/12/04 02:29:48;;;;;;;13.02;5.00;;;;;;;-0.98;78.18;97748.78;4533905;31;20104;-76
2021/12/04 02:32:18;;;;;;;14.63;5.55;;;;;;;-1.44;80.60;97752.22;4519665;31;20146;-76
2021/12/04 02:34:46;;;;;;;15.20;5.22;;;;;;;-1.00;78.75;97747.09;4519472;31;20150;-76
2021/12/04 02:37:13;;;;;;;13.60;5.28;;;;;;;-0.83;77.19;97742.00;4534382;31;20096;-76
2021/12/04 02:39:44;;;;;;;15.77;5.40;;;;;;;-1.45;79.12;97746.31;4535574;31;20504;-76
2021/12/04 02:42:22;;;;;;;14.30;5.10;;;;;;;-1.54;79.86;97743.78;4536180;31;20138;-76
2021/12/04 02:44:51;;;;;;;15.70;6.10;;;;;;;-1.93;81.70;97731.91;4536285;31;20135;-76
2021/12/04 02:47:18;;;;;;;14.85;5.50;;;;;;;-2.22;83.49;97724.31;4535907;31;20132;-76
2021/12/04 02:49:45;;;;;;;14.20;5.95;;;;;;;-1.33;80.20;97731.09;4536130;31;20456;-76
2021/12/04 02:52:13;;;;;;;14.60;5.53;;;;;;;-1.39;80.19;97726.03;4537656;31;20116;-76
2021/12/04 02:54:41;;;;;;;14.82;5.72;;;;;;;-1.00;78.75;97722.63;4523131;31;20142;-76
2021/12/04 02:57:11;;;;;;;14.65;6.07;;;;;;;-0.90;78.69;97703.19;4536524;31;20126;-76
2021/12/04 02:59:39;;;;;;;13.35;4.93;;;;;;;-0.89;78.75;97717.53;4536033;31;20453;-76
2021/12/04 03:02:15;;;;;;;18.55;5.75;;;;;;;-1.14;79.04;97715.91;4521331;31;20121;-76
2021/12/04 03:04:44;;;;;;;15.73;5.87;;;;;;;-0.85;78.88;97708.22;4536086;31;20095;-75
2021/12/04 03:07:11;;;;;;;14.30;5.72;;;;;;;-1.20;80.08;97699.87;4521625;31;20110;-75
2021/12/04 03:09:38;;;;;;;15.68;6.20;;;;;;;-1.34;80.84;97698.22;4535514;31;20114;-76
2021/12/04 03:12:07;;;;;;;14.13;5.10;;;;;;;-1.08;79.33;97693.09;4535614;31;20489;-76
2021/12/04 03:14:34;;;;;;;15.55;6.03;;;;;;;-0.88;76.88;97682.06;4535895;31;20420;-77
2021/12/04 03:17:02;;;;;;;13.65;5.25;;;;;;;-1.05;78.51;97667.78;4535927;31;20423;-76
2021/12/04 03:19:29;;;;;;;14.90;6.00;;;;;;;-0.82;78.66;97670.22;4521383;31;20120;-77
2021/12/04 03:21:56;;;;;;;16.45;6.18;;;;;;;-0.52;78.00;97665.03;4535752;31;20112;-77
2021/12/04 03:24:24;;;;;;;17.25;6.12;;;;;;;-0.69;77.69;97667.63;4535809;31;20113;-77
2021/12/04 03:26:52;;;;;;;16.05;5.93;;;;;;;-0.53;77.06;97657.41;4535843;31;20079;-77
2021/12/04 03:29:22;;;;;;;15.77;6.78;;;;;;;-0.80;77.27;97653.34;4535298;31;20591;-77
2021/12/04 03:40:06;;;;;;;14.30;5.20;;;;;;;-0.93;77.09;97647.47;4535725;31;20146;-76
2021/12/04 03:42:35;;;;;;;14.52;5.10;;;;;;;-1.05;78.11;97653.44;4523216;31;20118;-76
2021/12/04 03:45:03;;;;;;;16.17;6.25;;;;;;;-1.28;79.32;97653.47;4521081;31;20138;-76
2021/12/04 03:47:30;;;;;;;15.90;5.55;;;;;;;-1.39;80.15;97651.81;4535785;31;20135;-76
2021/12/04 03:49:58;;;;;;;15.50;5.75;;;;;;;-1.26;80.05;97645.91;4535145;31;20433;-77
2021/12/04 03:52:25;;;;;;;14.63;5.60;;;;;;;-1.78;81.72;97641.75;4535476;31;20484;-76
2021/12/04 03:54:52;;;;;;;15.73;5.45;;;;;;;-1.57;80.98;97643.41;4535555;31;20481;-76
2021/12/04 03:57:19;;;;;;;16.12;5.43;;;;;;;-1.43;80.48;97648.44;4535339;31;20099;-76
2021/12/04 03:59:47;;;;;;;15.05;5.70;;;;;;;-1.39;79.85;97642.53;4535445;31;20136;-76
2021/12/04 04:02:18;;;;;;;13.73;5.18;;;;;;;-1.50;81.48;97645.06;4535604;31;20109;-76
2021/12/04 04:04:45;;;;;;;15.13;5.60;;;;;;;-1.24;80.89;97639.97;4535359;31;20091;-76
2021/12/04 04:07:12;;;;;;;13.55;5.53;;;;;;;-1.44;81.29;97633.28;4535591;31;20143;-76
2021/12/04 04:09:39;;;;;;;16.37;6.30;;;;;;;-1.20;80.28;97630.69;4535386;31;20166;-76
2021/12/04 04:12:06;;;;;;;14.85;5.90;;;;;;;-1.04;80.06;97634.84;4534925;31;20162;-77
2021/12/04 04:14:34;;;;;;;18.08;6.32;;;;;;;-0.92;80.19;97631.44;4521223;31;20157;-77
2021/12/04 04:17:01;;;;;;;15.70;6.30;;;;;;;-0.79;79.53;97638.13;4521219;31;20098;-76
2021/12/04 04:19:28;;;;;;;15.13;6.43;;;;;;;-0.94;79.73;97633.97;4534878;31;20111;-76
2021/12/04 04:21:56;;;;;;;13.90;5.78;;;;;;;-1.03;80.56;97635.69;4535557;31;20170;-77
2021/12/04 04:24:26;;;;;;;17.17;7.10;;;;;;;-1.07;80.38;97632.31;4535421;31;20134;-76
2021/12/04 04:26:54;;;;;;;16.62;6.35;;;;;;;-0.96;80.48;97634.81;4535145;31;20106;-76
2021/12/04 04:29:21;;;;;;;16.62;7.12;;;;;;;-1.16;81.06;97632.38;4535279;31;20109;-76
2021/12/04 04:31:48;;;;;;;15.02;5.65;;;;;;;-1.01;80.88;97621.34;4535215;31;20162;-76
2021/12/04 04:34:26;;;;;;;18.15;6.47;;;;;;;-0.77;79.97;97628.81;4520994;31;20145;-76
2021/12/04 05:14:54;;;;;;;19.30;7.70;;;;;;;-0.31;78.32;97591.41;4534791;31;20130;-77
2021/12/04 05:17:31;;;;;;;17.70;7.68;;;;;;;-0.16;77.71;97613.25;4535223;31;20150;-76
2021/12/04 05:19:58;;;;;;;21.35;7.85;;;;;;;-0.19;77.98;97605.69;4535031;31;20079;-77
2021/12/04 05:22:25;;;;;;;17.30;7.47;;;;;;;-0.21;78.27;97604.00;4534720;31;20145;-76
2021/12/04 05:24:52;;;;;;;16.37;7.45;;;;;;;-0.01;78.06;97592.00;4535015;31;20143;-76
2021/12/04 05:27:19;;;;;;;16.08;7.25;;;;;;;-0.08;78.00;97598.00;4535046;31;20079;-76
2021/12/04 05:29:46;;;;;;;15.73;6.95;;;;;;;-0.15;78.29;97606.50;4534482;31;20087;-77
2021/12/04 05:32:13;;;;;;;19.35;7.72;;;;;;;-0.22;78.22;97599.78;4534911;31;20106;-77
2021/12/04 05:34:40;;;;;;;18.75;7.90;;;;;;;-0.50;79.59;97589.84;4534909;31;20437;-77
2021/12/04 05:37:07;;;;;;;20.08;8.52;;;;;;;-0.27;78.18;97588.84;4534463;31;20138;-77
2021/12/04 05:39:35;;;;;;;19.27;7.87;;;;;;;-0.10;77.38;97592.09;4534767;31;20099;-77
2021/12/04 05:42:02;;;;;;;17.08;7.35;;;;;;;-0.34;78.13;97595.62;4534694;31;20125;-77
2021/12/04 05:44:31;;;;;;;17.77;7.55;;;;;;;-0.32;77.72;97611.66;4534791;31;20100;-77
2021/12/04 05:47:15;;;;;;;16.67;7.32;;;;;;;0.19;76.30;97612.12;4534800;31;20412;-76
2021/12/04 05:49:53;;;;;;;16.50;7.43;;;;;;;-0.01;76.35;97590.31;4534364;31;20154;-76
2021/12/04 05:57:33;;;;;;;19.90;7.85;;;;;;;-0.61;77.30;97577.22;4534372;31;20114;-76
2021/12/04 06:00:00;;;;;;;20.12;8.63;;;;;;;-0.91;78.62;97573.19;4534505;31;20084;-76
2021/12/04 06:02:27;;;;;;;21.00;8.10;;;;;;;-1.23;81.09;97577.53;4534446;31;20158;-76
2021/12/04 06:04:54;;;;;;;18.98;7.40;;;;;;;-0.83;78.90;97585.81;4534214;31;20087;-76
2021/12/04 06:07:21;;;;;;;20.17;7.72;;;;;;;-0.69;77.80;97578.97;4534513;31;20150;-76
2021/12/04 06:09:48;;;;;;;18.70;7.40;;;;;;;-0.96;79.33;97574.91;4534188;31;20165;-76
2021/12/04 06:12:15;;;;;;;16.35;6.57;;;;;;;-0.68;79.25;97577.28;4534163;31;20740;-76
2021/12/04 06:14:46;;;;;;;16.75;7.05;;;;;;;-0.09;78.51;97563.34;4536475;31;20567;-76
2021/12/04 06:17:13;;;;;;;17.33;7.10;;;;;;;-0.16;79.35;97565.09;4536138;31;20097;-76
2021/12/04 06:22:40;;;;;;;18.95;6.95;;;;;;;-0.06;79.83;97566.69;4536295;31;20099;-76
2021/12/04 06:25:19;;;;;;;16.27;6.60;;;;;;;-0.05;79.98;97567.53;4536060;31;20103;-77
2021/12/04 06:27:46;;;;;;;16.10;5.75;;;;;;;-0.13;81.17;97556.59;4536229;31;20504;-76
2021/12/04 06:30:16;;;;;;;17.23;6.45;;;;;;;0.04;80.91;97539.56;4536247;31;20130;-76
2021/12/04 06:32:46;;;;;;;16.73;6.68;;;;;;;0.04;80.90;97547.16;4521387;31;20134;-76
2021/12/04 06:35:13;;;;;;;16.02;5.80;;;;;;;0.43;78.31;97543.41;4536242;31;20135;-76
2021/12/04 06:37:41;;;;;;;16.10;5.68;;;;;;;0.32;79.24;97536.72;4521935;31;20084;-77
2021/12/04 06:40:12;;;;;;;15.27;6.03;;;;;;;0.13;79.90;97526.78;4535887;31;20087;-76
2021/12/04 06:42:39;;;;;;;16.23;6.37;;;;;;;-0.03;80.71;97531.16;4536244;31;20096;-76
2021/12/04 06:45:07;;;;;;;16.60;5.65;;;;;;;0.43;78.85;97523.09;4535900;31;20680;-76
2021/12/04 06:47:37;;;;;;;16.52;6.15;;;;;;;0.38;79.38;97524.84;4536185;31;20429;-76
2021/12/04 06:50:10;;;;;;;16.35;6.03;;;;;;;0.34;79.82;97535.88;4535991;31;20134;-76
2021/12/04 06:52:42;;;;;;;19.42;6.97;;;;;;;0.27;79.79;97534.25;4535593;31;20686;-76
2021/12/04 06:55:09;;;;;;;12.37;5.32;;;;;;;0.42;79.87;97530.72;4536315;31;20126;-76
2021/12/04 06:57:40;;;;;;;13.73;5.87;;;;;;;0.49;79.57;97538.25;4536864;31;20098;-76
2021/12/04 07:00:10;;;;;;;14.70;5.50;;;;;;;0.84;79.21;97526.81;4537965;31;20086;-76
2021/12/04 07:02:37;;;;;;;14.75;5.87;;;;;;;1.12;77.50;97512.91;4538049;31;20143;-77
2021/12/04 07:05:05;;;;;;;16.30;5.95;;;;;;;1.80;74.97;97511.88;4536073;31;20083;-76
2021/12/04 07:07:32;;;;;;;12.93;5.30;;;;;;;2.48;72.10;97513.22;4521326;31;20163;-76
2021/12/04 07:09:59;;;;;;;15.43;6.15;;;;;;;2.94;70.47;97507.19;4535956;31;20127;-76
2021/12/04 07:12:25;;;;;;;;;;;;;;;3.36;68.06;97504.59;4536066;31;20122;-77
2021/12/04 07:14:52;;;;;;;12.95;5.50;;;;;;;3.37;68.07;97501.16;4535669;31;19993;-77
2021/12/04 07:17:19;;;;;;;;;;;;;;;3.36;68.93;97502.88;4536220;31;20143;-77
2021/12/04 07:19:46;;;;;;;15.10;6.10;;;;;;;3.58;68.41;97502.38;4535873;31;20324;-77
2021/12/04 07:22:13;;;;;;;14.75;6.35;;;;;;;3.08;69.51;97504.34;4521208;31;20096;-77
2021/12/04 07:24:40;;;;;;;14.73;6.03;;;;;;;4.00;65.68;97505.59;4535565;31;20150;-77
2021/12/04 07:27:07;;;;;;;15.70;6.22;;;;;;;3.16;68.66;97507.56;4535954;31;20143;-77
2021/12/04 07:29:34;;;;;;;16.08;6.37;;;;;;;3.90;66.16;97501.59;4535395;31;20126;-77
2021/12/04 07:32:01;;;;;;;14.40;5.45;;;;;;;4.38;64.18;97501.22;4536016;31;20481;-77
2021/12/04 07:34:28;;;;;;;14.50;5.25;;;;;;;4.69;62.41;97498.69;4521037;31;20117;-77
2021/12/04 07:36:55;;;;;;;;;;;;;;;4.03;64.59;97495.31;4536144;31;20539;-77
2021/12/04 07:39:22;;;;;;;13.10;4.65;;;;;;;4.22;63.72;97503.34;4535771;31;20031;-77
2021/12/04 07:41:49;;;;;;;;;;;;;;;3.69;64.84;97500.41;4535736;31;20105;-76
2021/12/04 07:44:16;;;;;;;12.35;5.22;;;;;;;3.62;65.53;97492.06;4535803;31;20026;-76
2021/12/04 07:46:42;;;;;;;;;;;;;;;3.47;67.03;97492.44;4536042;31;20088;-77
2021/12/04 07:49:10;;;;;;;12.85;4.90;;;;;;;3.04;68.69;97495.94;4535479;31;20364;-77
2021/12/04 07:51:37;;;;;;;13.70;5.93;;;;;;;3.14;68.63;97505.06;4535688;31;20477;-76
2021/12/04 07:54:04;;;;;;;16.42;6.00;;;;;;;3.09;69.56;97501.78;4535496;31;20099;-77
2021/12/04 07:56:32;;;;;;;11.80;5.35;;;;;;;2.89;70.05;97499.66;4535249;31;20170;-77
2021/12/04 07:58:59;;;;;;;12.70;5.50;;;;;;;3.12;69.66;97500.87;4521164;31;20443;-77
2021/12/04 08:01:26;;;;;;;15.10;6.05;;;;;;;3.74;68.18;97503.69;4508282;31;20155;-77
2021/12/04 08:03:53;;;;;;;14.70;6.50;;;;;;;3.62;67.60;97497.19;4535224;31;20144;-77
2021/12/04 08:06:20;;;;;;;15.07;6.22;;;;;;;3.64;67.92;97492.03;4535589;31;20170;-77
2021/12/04 08:08:47;;;;;;;15.13;6.28;;;;;;;3.16;70.24;97482.91;4535451;31;20101;-77
2021/12/04 08:11:14;;;;;;;13.62;5.97;;;;;;;2.80;72.16;97497.31;4535154;31;20103;-77
2021/12/04 08:13:43;;;;;;;;;;;;;;;3.34;69.96;97483.38;4535780;31;20166;-77
2021/12/04 08:16:10;;;;;;;14.30;5.72;;;;;;;4.10;67.58;97485.78;4535708;31;20058;-76
2021/12/04 08:18:37;;;;;;;14.38;5.82;;;;;;;4.18;67.09;97492.38;4535068;31;20083;-77
2021/12/04 08:21:04;;;;;;;16.25;6.28;;;;;;;4.39;66.04;97493.53;4535481;31;20523;-77
2021/12/04 08:23:31;;;;;;;;;;;;;;;3.88;66.91;97493.16;4535468;31;20130;-77
2021/12/04 08:25:58;;;;;;;14.27;6.03;;;;;;;3.54;68.39;97485.47;4521198;31;20070;-77
2021/12/04 08:28:25;;;;;;;14.13;5.60;;;;;;;3.34;68.68;97468.94;4520998;31;20083;-77
2021/12/04 08:30:53;;;;;;;14.93;6.10;;;;;;;3.19;69.07;97470.13;4535068;31;20103;-77
2021/12/04 08:33:20;;;;;;;13.95;5.35;;;;;;;3.35;68.85;97477.41;4535331;31;20084;-77
2021/12/04 08:35:47;;;;;;;;;;;;;;;2.42;71.37;97467.50;4534678;31;20147;-77
2021/12/04 08:38:16;;;;;;;14.43;6.25;;;;;;;2.19;72.49;97462.84;4535071;31;19971;-77
2021/12/04 08:40:43;;;;;;;11.20;4.70;;;;;;;1.89;74.46;97465.94;4535440;31;20166;-77
2021/12/04 08:43:12;;;;;;;13.48;5.32;;;;;;;2.01;73.19;97466.56;4520998;31;20107;-76
2021/12/04 08:45:40;;;;;;;12.32;4.60;;;;;;;2.27;72.48;97462.72;4520569;31;20168;-77
2021/12/04 08:48:07;;;;;;;15.38;5.07;;;;;;;2.43;71.15;97464.06;4535228;31;20114;-77
2021/12/04 08:50:35;;;;;;;12.57;4.50;;;;;;;1.91;72.27;97456.56;4535425;31;20146;-77
2021/12/04 08:53:03;;;;;;;11.32;4.53;;;;;;;1.70;73.17;97465.41;4534858;31;20114;-77
2021/12/04 08:55:35;;;;;;;12.35;5.07;;;;;;;2.24;72.11;97460.22;4535391;31;20079;-76
2021/12/04 08:58:03;;;;;;;11.60;5.03;;;;;;;1.82;72.68;97454.22;4535585;31;20097;-77
2021/12/04 09:00:39;;;;;;;14.75;4.45;;;;;;;2.18;72.89;97456.09;4534972;31;20167;-77
2021/12/04 09:03:08;;;;;;;11.43;4.20;;;;;;;1.85;72.67;97443.97;4535267;31;20529;-77
2021/12/04 09:05:37;;;;;;;11.48;4.47;;;;;;;1.76;73.28;97444.97;4534956;31;20101;-77
2021/12/04 09:08:05;;;;;;;13.80;4.45;;;;;;;2.30;71.07;97443.13;4535055;31;20138;-77
2021/12/04 09:10:33;;;;;;;11.55;4.00;;;;;;;2.17;70.87;97446.78;4535420;31;20141;-77
2021/12/04 09:13:00;;;;;;;11.20;4.43;;;;;;;1.99;70.85;97429.28;4502899;31;20505;-77
2021/12/04 09:15:31;;;;;;;14.93;5.25;;;;;;;1.93;71.17;97409.91;4503199;31;20098;-77
2021/12/04 09:17:59;;;;;;;11.40;4.40;;;;;;;1.48;72.76;97403.91;4503246;31;20143;-77
2021/12/04 09:20:28;;;;;;;11.07;3.97;;;;;;;1.99;71.02;97412.31;4502894;31;20156;-77
2021/12/04 09:22:55;;;;;;;11.32;4.80;;;;;;;2.76;68.08;97421.78;4503038;31;20095;-77
2021/12/04 09:25:24;;;;;;;9.63;3.90;;;;;;;2.65;67.40;97426.28;4503198;31;20080;-77
2021/12/04 10:03:07;;;;;;;10.40;3.72;;;;;;;3.78;59.60;97353.03;4502229;31;20367;-77
2021/12/04 10:11:42;;;;;;;11.68;3.70;;;;;;;4.15;55.58;97353.72;4505454;31;20159;-77
2021/12/04 10:24:51;;;;;;;9.57;3.05;;;;;;;5.57;49.94;97311.78;4520057;31;20459;-77
2021/12/04 10:33:20;;;;;;;8.88;3.15;;;;;;;5.04;51.20;97288.00;4522118;31;20169;-77
2021/12/04 10:35:48;;;;;;;8.43;3.05;;;;;;;6.05;48.83;97270.78;4519871;31;20150;-77
2021/12/04 10:38:21;;;;;;;7.90;2.55;;;;;;;5.98;47.75;97266.81;4533600;31;20087;-77
2021/12/04 10:40:50;;;;;;;7.75;2.97;;;;;;;6.46;47.55;97259.88;4534095;31;20544;-77
2021/12/04 10:43:26;;;;;;;8.13;2.78;;;;;;;6.11;46.39;97256.94;4519637;31;20484;-77
2021/12/04 10:45:56;;;;;;;7.65;2.80;;;;;;;6.65;45.81;97260.84;4519376;31;20162;-77
2021/12/04 10:48:28;;;;;;;9.18;3.20;;;;;;;6.96;46.44;97256.16;4519526;31;20118;-77
2021/12/04 10:53:49;;;;;;;7.68;2.12;;;;;;;6.85;43.69;97270.31;4521714;31;20097;-78
2021/12/04 11:01:55;;;;;;;8.80;2.53;;;;;;;6.70;44.52;97258.09;4524550;31;20576;-77
2021/12/04 11:04:44;;;;;;;7.47;2.67;;;;;;;6.70;46.10;97250.37;4538498;31;20147;-78
2021/12/04 11:27:04;;;;;;;8.80;2.83;;;;;;;5.43;47.41;97232.94;4535546;31;20123;-77
2021/12/04 11:37:57;;;;;;;7.57;2.40;;;;;;;6.38;44.58;97224.34;4521929;31;20524;-77
2021/12/04 11:43:17;;;;;;;8.13;2.90;;;;;;;5.68;45.81;97219.25;4535899;31;20237;-77
2021/12/04 11:46:01;;;;;;;9.02;2.67;;;;;;;5.52;47.50;97235.16;4521791;31;20087;-77
2021/12/04 11:48:35;;;;;;;8.70;2.65;;;;;;;5.16;49.62;97223.66;4522453;31;20439;-77
2021/12/04 11:51:04;;;;;;;7.80;2.90;;;;;;;5.34;47.41;97230.69;4521446;31;20468;-77
2021/12/04 11:53:32;;;;;;;8.10;2.90;;;;;;;5.20;48.57;97225.22;4535726;31;20113;-77
2021/12/04 11:56:00;;;;;;;8.18;2.83;;;;;;;5.59;47.76;97222.97;4535230;31;20127;-77
2021/12/04 11:58:39;;;;;;;8.65;2.80;;;;;;;5.41;48.25;97213.41;4535559;31;20154;-77
2021/12/04 12:01:19;;;;;;;11.80;3.85;;;;;;;5.85;47.73;97211.81;4521018;31;20111;-77
2021/12/04 12:03:52;;;;;;;10.70;4.07;;;;;;;5.36;47.56;97207.62;4535655;31;20091;-77
2021/12/04 12:06:29;;;;;;;9.63;3.30;;;;;;;4.79;49.87;97201.91;4535801;31;20097;-77
2021/12/04 12:09:12;;;;;;;8.15;2.80;;;;;;;5.02;48.50;97192.62;4535110;31;20586;-77
2021/12/04 12:11:55;;;;;;;8.68;2.90;;;;;;;5.47;48.59;97197.84;4522416;31;20099;-77
2021/12/04 12:14:36;;;;;;;10.90;3.78;;;;;;;5.40;48.27;97186.97;4535593;31;20099;-77
2021/12/04 12:17:03;;;;;;;8.05;2.75;;;;;;;4.97;48.46;97189.37;4521389;31;20087;-77
2021/12/04 12:19:42;;;;;;;8.05;2.97;;;;;;;5.24;49.63;97190.97;4535375;31;20438;-77
2021/12/04 12:22:46;;;;;;;9.77;3.30;;;;;;;5.15;49.16;97197.25;4535414;31;20091;-77
2021/12/04 12:36:31;;;;;;;10.18;3.53;;;;;;;4.78;49.98;97161.03;4535234;31;20083;-77
2021/12/04 12:39:11;;;;;;;9.55;3.22;;;;;;;4.63;49.99;97154.72;4535340;31;20087;-77
2021/12/04 12:41:40;;;;;;;11.93;4.57;;;;;;;5.14;49.25;97151.28;4535529;31;20131;-77
2021/12/04 12:44:08;;;;;;;10.90;3.92;;;;;;;4.78;51.77;97151.66;4535082;31;20114;-77
2021/12/04 12:46:48;;;;;;;10.88;4.32;;;;;;;5.47;50.43;97149.22;4535358;31;20087;-77
2021/12/04 12:49:36;;;;;;;13.02;4.68;;;;;;;5.16;48.94;97144.38;4535319;31;20789;-77
2021/12/04 12:52:08;;;;;;;9.07;3.62;;;;;;;4.89;49.29;97148.72;4535160;31;20425;-77
2021/12/04 12:54:44;;;;;;;12.90;4.90;;;;;;;5.06;49.27;97133.63;4520783;31;20491;-77
2021/12/04 12:57:18;;;;;;;12.65;3.90;;;;;;;5.01;49.59;97134.72;4535154;31;20083;-77
2021/12/04 13:11:35;;;;;;;8.30;3.53;;;;;;;4.61;47.76;97136.06;4520920;31;20181;-77
2021/12/04 13:13:55;;;;;;;;;;;;;;;3.98;51.13;97115.13;4523218;31;20456;-77
2021/12/04 13:16:28;;;;;;;11.33;3.60;;;;;;;3.96;51.43;97123.72;4520851;31;20445;-77
2021/12/04 13:19:03;;;;;;;13.95;5.78;;;;;;;3.92;51.96;97117.00;4534749;31;20211;-77
2021/12/04 13:21:34;;;;;;;9.80;3.83;;;;;;;4.40;50.91;97113.78;4520323;31;20103;-77
2021/12/04 13:24:01;;;;;;;14.30;6.10;;;;;;;4.11;51.39;97102.78;4520788;31;20163;-77
2021/12/04 13:26:30;;;;;;;12.55;5.10;;;;;;;5.01;50.08;97097.19;4534826;31;20131;-77
2021/12/04 13:29:00;;;;;;;12.37;5.28;;;;;;;5.01;50.52;97086.12;4534832;31;20155;-77
2021/12/04 13:31:27;;;;;;;11.77;4.07;;;;;;;4.40;52.60;97076.31;4520862;31;20138;-77
2021/12/04 13:33:56;;;;;;;12.65;5.10;;;;;;;4.68;50.84;97070.25;4520258;31;20142;-77
2021/12/04 13:36:28;;;;;;;13.20;5.03;;;;;;;4.30;51.62;97065.56;4520495;31;20162;-77
2021/12/04 13:39:02;;;;;;;13.62;5.90;;;;;;;4.66;50.59;97065.19;4520355;31;20167;-77
2021/12/04 13:41:30;;;;;;;11.20;4.22;;;;;;;4.27;51.67;97058.00;4535041;31;20079;-77
2021/12/04 13:43:59;;;;;;;12.52;4.18;;;;;;;4.53;50.64;97053.72;4534722;31;20174;-77
2021/12/04 13:46:26;;;;;;;11.77;4.28;;;;;;;4.13;50.93;97049.97;4534367;31;20105;-77
2021/12/04 13:49:01;;;;;;;12.37;4.82;;;;;;;3.90;51.32;97037.13;4534832;31;20150;-77
2021/12/04 13:51:28;;;;;;;12.98;5.12;;;;;;;3.84;51.81;97045.81;4520482;31;20079;-77
2021/12/04 13:53:57;;;;;;;14.80;5.78;;;;;;;3.63;53.79;97031.19;4534236;31;20087;-77
2021/12/04 13:56:24;;;;;;;16.87;6.70;;;;;;;3.61;55.54;97028.66;4534745;31;20155;-77
2021/12/04 13:58:55;;;;;;;14.73;5.70;;;;;;;3.74;57.26;97031.69;4534539;31;20583;-77
2021/12/04 14:01:24;;;;;;;17.05;6.20;;;;;;;3.20;59.84;97027.41;4534303;31;20138;-77
2021/12/04 14:03:56;;;;;;;16.73;6.28;;;;;;;3.48;60.92;97032.47;4534553;31;20098;-76
2021/12/04 14:06:23;;;;;;;18.60;7.75;;;;;;;3.07;64.38;97026.06;4520141;31;20114;-77
2021/12/04 14:08:56;;;;;;;16.87;6.85;;;;;;;2.92;67.62;97029.06;4534056;31;20158;-77
2021/12/04 14:11:39;;;;;;;19.20;8.55;;;;;;;2.46;69.14;97031.19;4534163;31;20096;-77
2021/12/04 14:14:27;;;;;;;20.65;8.55;;;;;;;2.62;69.34;97041.78;4534371;31;20441;-77
2021/12/04 14:17:01;;;;;;;17.33;7.85;;;;;;;2.79;68.78;97031.97;4534434;31;20162;-77
2021/12/04 14:19:30;;;;;;;18.55;8.88;;;;;;;2.49;70.32;97031.09;4534199;31;20167;-77
2021/12/04 14:21:57;;;;;;;23.85;10.00;;;;;;;2.59;69.59;97029.97;4534211;31;20435;-77
2021/12/04 14:24:42;;;;;;;;;;;;;;;2.85;69.03;97036.03;4534607;31;20146;-77
2021/12/04 14:27:15;;;;;;;24.65;11.30;;;;;;;2.37;70.73;97033.12;4534533;31;20001;-77
2021/12/04 14:29:47;;;;;;;25.05;11.25;;;;;;;2.32;71.04;97044.25;4533761;31;20100;-77
2021/12/04 14:32:16;;;;;;;29.37;13.38;;;;;;;2.44;70.50;97045.66;4534076;31;20095;-78
2021/12/04 14:34:43;;;;;;;28.98;13.38;;;;;;;2.54;69.48;97039.44;4535792;31;20087;-78
2021/12/04 14:37:15;;;;;;;27.37;13.43;;;;;;;1.97;70.02;97034.16;4535717;31;20138;-77
2021/12/04 14:39:45;;;;;;;29.45;13.73;;;;;;;1.97;70.11;97040.06;4536237;31;20163;-76
2021/12/04 14:42:28;;;;;;;25.48;11.40;;;;;;;2.06;68.87;97039.00;4536205;31;20146;-77
2021/12/04 14:45:21;;;;;;;28.58;12.80;;;;;;;1.73;69.58;97048.31;4536222;31;20071;-77
2021/12/04 14:48:00;;;;;;;27.67;12.48;;;;;;;2.28;67.82;97045.22;4513045;31;20129;-77
2021/12/04 14:50:28;;;;;;;22.02;9.82;;;;;;;1.80;69.95;97046.44;4535805;31;20099;-77
2021/12/04 14:53:00;;;;;;;23.48;9.98;;;;;;;1.80;70.16;97036.25;4536169;31;20194;-77